Friday, February 23, 2018, 7:55 PM GMT
Back to Local

CWJB, Ste Foy CS , Que.

Location: , , Canada Lat: 47.3
Local Time: 7:55 PM GMT (19:55 GMT) Lon: -71.267
Time Zone: GMT Elev: 298 ft

Show me the last for .
Show Coded

Time T Td Feel RH Dir Speed Gust Alt SLP Vis Weather Sky Remarks
2018-02-23 19:00 27 - 20 0 80° 6 - - - 0 None
2018-02-23 18:00 24 - 16 0 30° 6 - - - 0 None
2018-02-23 17:00 23 - - 0 10° 2 - - - 0 None
2018-02-23 16:00 19 - 13 0 20° 5 - - - 0 None
2018-02-23 15:00 18 - - 0 110° 2 - - - 0 None
2018-02-23 14:00 12 - - 0 10° 2 - - - 0 None
2018-02-23 13:00 13 - - 0 220° 2 - - - 0 None
2018-02-23 12:00 5 - - 0 340° 1 - - - 0 None
2018-02-23 11:00 6 - - 0 220° 2 - - - 0 None
2018-02-23 10:00 8 - - 0 200° 1 - - - 0 None
2018-02-23 09:00 11 - - 0 220° 2 - - - 0 None
2018-02-23 08:00 13 - 5 0 220° 5 - - - 0 None
2018-02-23 07:00 11 - 4 0 220° 3 - - - 0 None
2018-02-23 06:00 12 - 5 0 220° 3 - - - 0 None
2018-02-23 05:00 12 - - 0 200° 1 - - - 0 None
2018-02-23 04:00 14 - 8 0 210° 3 - - - 0 None
2018-02-23 03:00 15 - - 0 200° 2 - - - 0 None
2018-02-23 02:00 16 - 10 0 220° 3 - - - 0 None
2018-02-23 01:00 18 - 7 0 220° 9 - - - 0 None
2018-02-23 00:00 19 - 9 0 220° 8 - - - 0 None
2018-02-22 23:00 20 - 10 0 220° 8 - - - 0 None
2018-02-22 22:00 20 - 10 0 220° 8 - - - 0 None
2018-02-22 21:00 21 - 11 0 220° 9 - - - 0 None
2018-02-22 20:00 21 - 11 0 220° 8 - - - 0 None

Support USWX by starting your Amazon purchase here.